sensor_id;sensor_type;location;lat;lon;timestamp;P1;durP1;ratioP1;P2;durP2;ratioP2
26303;SDS011;57113;48.680;8.890;2023-04-30T00:01:55;5.28;;;3.67;;
26303;SDS011;57113;48.680;8.890;2023-04-30T00:04:20;5.90;;;3.65;;
26303;SDS011;57113;48.680;8.890;2023-04-30T00:06:46;5.70;;;4.05;;
26303;SDS011;57113;48.680;8.890;2023-04-30T00:09:11;4.75;;;3.42;;
26303;SDS011;57113;48.680;8.890;2023-04-30T00:11:37;4.50;;;3.60;;
26303;SDS011;57113;48.680;8.890;2023-04-30T00:14:03;5.07;;;3.35;;
26303;SDS011;57113;48.680;8.890;2023-04-30T00:16:28;3.92;;;3.08;;
26303;SDS011;57113;48.680;8.890;2023-04-30T00:18:54;7.55;;;3.45;;
26303;SDS011;57113;48.680;8.890;2023-04-30T00:21:20;4.07;;;3.42;;
26303;SDS011;57113;48.680;8.890;2023-04-30T00:23:45;4.65;;;3.13;;
26303;SDS011;57113;48.680;8.890;2023-04-30T00:26:11;3.70;;;3.15;;
26303;SDS011;57113;48.680;8.890;2023-04-30T00:28:36;3.95;;;3.05;;
26303;SDS011;57113;48.680;8.890;2023-04-30T00:31:02;4.18;;;3.35;;
26303;SDS011;57113;48.680;8.890;2023-04-30T00:33:30;4.60;;;3.10;;
26303;SDS011;57113;48.680;8.890;2023-04-30T00:35:56;5.45;;;2.85;;
26303;SDS011;57113;48.680;8.890;2023-04-30T00:38:22;4.10;;;2.88;;
26303;SDS011;57113;48.680;8.890;2023-04-30T00:40:48;4.90;;;2.97;;
26303;SDS011;57113;48.680;8.890;2023-04-30T00:43:13;5.82;;;3.05;;
26303;SDS011;57113;48.680;8.890;2023-04-30T00:45:39;4.75;;;3.13;;
26303;SDS011;57113;48.680;8.890;2023-04-30T00:48:04;3.85;;;2.85;;
26303;SDS011;57113;48.680;8.890;2023-04-30T00:50:31;3.97;;;3.15;;
26303;SDS011;57113;48.680;8.890;2023-04-30T00:52:59;3.95;;;3.17;;
26303;SDS011;57113;48.680;8.890;2023-04-30T00:55:25;4.00;;;3.20;;
26303;SDS011;57113;48.680;8.890;2023-04-30T00:57:51;4.55;;;3.13;;
26303;SDS011;57113;48.680;8.890;2023-04-30T01:00:17;4.93;;;3.15;;
26303;SDS011;57113;48.680;8.890;2023-04-30T01:02:42;3.75;;;3.20;;
26303;SDS011;57113;48.680;8.890;2023-04-30T01:05:08;3.28;;;2.88;;
26303;SDS011;57113;48.680;8.890;2023-04-30T01:07:35;4.50;;;3.03;;
26303;SDS011;57113;48.680;8.890;2023-04-30T01:10:03;3.67;;;2.75;;
26303;SDS011;57113;48.680;8.890;2023-04-30T01:20:20;3.72;;;2.95;;
26303;SDS011;57113;48.680;8.890;2023-04-30T01:22:55;4.50;;;3.17;;
26303;SDS011;57113;48.680;8.890;2023-04-30T01:25:43;3.60;;;3.03;;
26303;SDS011;57113;48.680;8.890;2023-04-30T01:28:35;4.10;;;3.05;;
26303;SDS011;57113;48.680;8.890;2023-04-30T01:31:00;3.78;;;3.10;;
26303;SDS011;57113;48.680;8.890;2023-04-30T01:33:26;4.10;;;3.13;;
26303;SDS011;57113;48.680;8.890;2023-04-30T01:36:09;5.03;;;3.33;;
26303;SDS011;57113;48.680;8.890;2023-04-30T01:38:49;5.10;;;3.20;;
26303;SDS011;57113;48.680;8.890;2023-04-30T01:47:38;4.95;;;3.42;;
26303;SDS011;57113;48.680;8.890;2023-04-30T01:50:31;5.18;;;3.63;;
26303;SDS011;57113;48.680;8.890;2023-04-30T01:52:59;4.47;;;3.42;;
26303;SDS011;57113;48.680;8.890;2023-04-30T01:56:15;5.07;;;3.38;;
26303;SDS011;57113;48.680;8.890;2023-04-30T01:58:12;4.30;;;3.50;;
26303;SDS011;57113;48.680;8.890;2023-04-30T02:00:39;4.70;;;3.42;;
26303;SDS011;57113;48.680;8.890;2023-04-30T02:03:05;4.95;;;4.05;;
26303;SDS011;57113;48.680;8.890;2023-04-30T02:05:31;4.05;;;3.47;;
26303;SDS011;57113;48.680;8.890;2023-04-30T02:07:57;6.82;;;3.97;;
26303;SDS011;57113;48.680;8.890;2023-04-30T02:10:23;5.47;;;3.88;;
26303;SDS011;57113;48.680;8.890;2023-04-30T02:12:50;5.05;;;4.35;;
26303;SDS011;57113;48.680;8.890;2023-04-30T02:15:16;5.30;;;3.70;;
26303;SDS011;57113;48.680;8.890;2023-04-30T02:17:42;5.38;;;3.97;;
26303;SDS011;57113;48.680;8.890;2023-04-30T02:20:08;4.90;;;3.60;;
26303;SDS011;57113;48.680;8.890;2023-04-30T02:22:34;4.55;;;3.58;;
26303;SDS011;57113;48.680;8.890;2023-04-30T02:25:01;6.50;;;4.22;;
26303;SDS011;57113;48.680;8.890;2023-04-30T02:27:28;4.53;;;3.38;;
26303;SDS011;57113;48.680;8.890;2023-04-30T02:29:55;4.57;;;3.58;;
26303;SDS011;57113;48.680;8.890;2023-04-30T02:32:21;4.47;;;3.70;;
26303;SDS011;57113;48.680;8.890;2023-04-30T02:34:47;4.50;;;3.85;;
26303;SDS011;57113;48.680;8.890;2023-04-30T02:37:13;6.22;;;4.18;;
26303;SDS011;57113;48.680;8.890;2023-04-30T02:39:39;4.85;;;3.72;;
26303;SDS011;57113;48.680;8.890;2023-04-30T02:42:05;5.63;;;4.35;;
26303;SDS011;57113;48.680;8.890;2023-04-30T02:44:31;6.05;;;4.20;;
26303;SDS011;57113;48.680;8.890;2023-04-30T02:46:58;6.10;;;4.35;;
26303;SDS011;57113;48.680;8.890;2023-04-30T02:49:24;5.32;;;4.43;;
26303;SDS011;57113;48.680;8.890;2023-04-30T02:51:50;7.55;;;5.00;;
26303;SDS011;57113;48.680;8.890;2023-04-30T02:54:16;6.68;;;4.50;;
26303;SDS011;57113;48.680;8.890;2023-04-30T02:56:42;5.05;;;4.10;;
26303;SDS011;57113;48.680;8.890;2023-04-30T02:59:08;7.68;;;5.00;;
26303;SDS011;57113;48.680;8.890;2023-04-30T03:01:34;6.18;;;4.70;;
26303;SDS011;57113;48.680;8.890;2023-04-30T03:04:00;6.55;;;4.80;;
26303;SDS011;57113;48.680;8.890;2023-04-30T03:06:27;6.22;;;4.80;;
26303;SDS011;57113;48.680;8.890;2023-04-30T03:08:53;5.95;;;5.05;;
26303;SDS011;57113;48.680;8.890;2023-04-30T03:11:19;7.47;;;5.20;;
26303;SDS011;57113;48.680;8.890;2023-04-30T03:13:45;6.65;;;4.75;;
26303;SDS011;57113;48.680;8.890;2023-04-30T03:16:15;7.13;;;5.10;;
26303;SDS011;57113;48.680;8.890;2023-04-30T03:18:41;6.20;;;4.80;;
26303;SDS011;57113;48.680;8.890;2023-04-30T03:21:06;6.68;;;5.50;;
26303;SDS011;57113;48.680;8.890;2023-04-30T03:23:33;8.02;;;5.05;;
26303;SDS011;57113;48.680;8.890;2023-04-30T03:25:59;7.03;;;4.85;;
26303;SDS011;57113;48.680;8.890;2023-04-30T03:28:25;7.07;;;5.30;;
26303;SDS011;57113;48.680;8.890;2023-04-30T03:30:51;6.75;;;5.00;;
26303;SDS011;57113;48.680;8.890;2023-04-30T03:33:16;7.85;;;5.40;;
26303;SDS011;57113;48.680;8.890;2023-04-30T03:35:42;8.52;;;5.90;;
26303;SDS011;57113;48.680;8.890;2023-04-30T03:38:07;7.10;;;5.68;;
26303;SDS011;57113;48.680;8.890;2023-04-30T03:40:33;8.00;;;5.38;;
26303;SDS011;57113;48.680;8.890;2023-04-30T03:42:59;7.22;;;5.43;;
26303;SDS011;57113;48.680;8.890;2023-04-30T03:45:24;6.72;;;5.47;;
26303;SDS011;57113;48.680;8.890;2023-04-30T03:47:50;6.88;;;5.50;;
26303;SDS011;57113;48.680;8.890;2023-04-30T03:50:16;9.73;;;6.30;;
26303;SDS011;57113;48.680;8.890;2023-04-30T03:52:43;7.90;;;5.70;;
26303;SDS011;57113;48.680;8.890;2023-04-30T03:55:09;8.20;;;6.00;;
26303;SDS011;57113;48.680;8.890;2023-04-30T03:57:35;8.50;;;5.82;;
26303;SDS011;57113;48.680;8.890;2023-04-30T04:00:02;7.25;;;6.20;;
26303;SDS011;57113;48.680;8.890;2023-04-30T04:02:31;7.53;;;6.28;;
26303;SDS011;57113;48.680;8.890;2023-04-30T04:04:57;9.32;;;6.05;;
26303;SDS011;57113;48.680;8.890;2023-04-30T04:07:24;12.60;;;5.90;;
26303;SDS011;57113;48.680;8.890;2023-04-30T04:09:50;7.38;;;6.10;;
26303;SDS011;57113;48.680;8.890;2023-04-30T04:12:15;8.88;;;6.43;;
26303;SDS011;57113;48.680;8.890;2023-04-30T04:14:41;10.43;;;6.13;;
26303;SDS011;57113;48.680;8.890;2023-04-30T04:17:07;8.40;;;6.35;;
26303;SDS011;57113;48.680;8.890;2023-04-30T04:19:32;10.50;;;7.20;;
26303;SDS011;57113;48.680;8.890;2023-04-30T04:21:58;7.18;;;5.82;;
26303;SDS011;57113;48.680;8.890;2023-04-30T04:24:24;10.20;;;6.65;;
26303;SDS011;57113;48.680;8.890;2023-04-30T04:26:50;8.55;;;6.15;;
26303;SDS011;57113;48.680;8.890;2023-04-30T04:29:16;6.70;;;5.82;;
26303;SDS011;57113;48.680;8.890;2023-04-30T04:31:42;7.72;;;6.15;;
26303;SDS011;57113;48.680;8.890;2023-04-30T04:34:08;9.88;;;6.70;;
26303;SDS011;57113;48.680;8.890;2023-04-30T04:36:33;7.65;;;6.38;;
26303;SDS011;57113;48.680;8.890;2023-04-30T04:38:59;9.05;;;6.85;;
26303;SDS011;57113;48.680;8.890;2023-04-30T04:41:26;8.00;;;6.45;;
26303;SDS011;57113;48.680;8.890;2023-04-30T04:43:52;9.98;;;6.57;;
26303;SDS011;57113;48.680;8.890;2023-04-30T04:46:18;7.22;;;5.90;;
26303;SDS011;57113;48.680;8.890;2023-04-30T04:48:44;7.80;;;6.50;;
26303;SDS011;57113;48.680;8.890;2023-04-30T04:51:11;8.00;;;6.78;;
26303;SDS011;57113;48.680;8.890;2023-04-30T04:53:37;7.25;;;5.72;;
26303;SDS011;57113;48.680;8.890;2023-04-30T04:56:03;8.15;;;6.40;;
26303;SDS011;57113;48.680;8.890;2023-04-30T04:58:29;8.48;;;6.38;;
26303;SDS011;57113;48.680;8.890;2023-04-30T05:00:54;7.43;;;5.95;;
26303;SDS011;57113;48.680;8.890;2023-04-30T05:03:21;11.48;;;6.68;;
26303;SDS011;57113;48.680;8.890;2023-04-30T05:05:47;8.85;;;6.93;;
26303;SDS011;57113;48.680;8.890;2023-04-30T05:08:12;9.35;;;7.00;;
26303;SDS011;57113;48.680;8.890;2023-04-30T05:10:38;8.85;;;6.47;;
26303;SDS011;57113;48.680;8.890;2023-04-30T05:13:03;9.02;;;6.38;;
26303;SDS011;57113;48.680;8.890;2023-04-30T05:15:29;9.65;;;6.63;;
26303;SDS011;57113;48.680;8.890;2023-04-30T05:17:55;10.02;;;6.60;;
26303;SDS011;57113;48.680;8.890;2023-04-30T05:20:20;8.98;;;6.53;;
26303;SDS011;57113;48.680;8.890;2023-04-30T05:22:46;10.20;;;6.78;;
26303;SDS011;57113;48.680;8.890;2023-04-30T05:25:11;7.97;;;6.60;;
26303;SDS011;57113;48.680;8.890;2023-04-30T05:27:37;9.80;;;7.20;;
26303;SDS011;57113;48.680;8.890;2023-04-30T05:30:03;7.25;;;6.13;;
26303;SDS011;57113;48.680;8.890;2023-04-30T05:32:29;10.35;;;6.72;;
26303;SDS011;57113;48.680;8.890;2023-04-30T05:34:54;9.25;;;7.13;;
26303;SDS011;57113;48.680;8.890;2023-04-30T05:37:20;8.07;;;6.68;;
26303;SDS011;57113;48.680;8.890;2023-04-30T05:39:47;9.57;;;6.95;;
26303;SDS011;57113;48.680;8.890;2023-04-30T05:42:12;9.63;;;6.50;;
26303;SDS011;57113;48.680;8.890;2023-04-30T05:44:39;9.82;;;6.68;;
26303;SDS011;57113;48.680;8.890;2023-04-30T05:47:05;8.13;;;6.55;;
26303;SDS011;57113;48.680;8.890;2023-04-30T05:49:30;8.45;;;6.30;;
26303;SDS011;57113;48.680;8.890;2023-04-30T05:51:56;7.55;;;6.10;;
26303;SDS011;57113;48.680;8.890;2023-04-30T05:54:22;7.82;;;5.80;;
26303;SDS011;57113;48.680;8.890;2023-04-30T05:56:47;7.97;;;6.32;;
26303;SDS011;57113;48.680;8.890;2023-04-30T05:59:13;7.63;;;6.28;;
26303;SDS011;57113;48.680;8.890;2023-04-30T06:01:39;7.90;;;5.70;;
26303;SDS011;57113;48.680;8.890;2023-04-30T06:04:05;7.53;;;5.88;;
26303;SDS011;57113;48.680;8.890;2023-04-30T06:06:33;7.38;;;5.60;;
26303;SDS011;57113;48.680;8.890;2023-04-30T06:08:58;7.03;;;5.60;;
26303;SDS011;57113;48.680;8.890;2023-04-30T06:11:24;7.15;;;5.68;;
26303;SDS011;57113;48.680;8.890;2023-04-30T06:13:50;8.98;;;5.85;;
26303;SDS011;57113;48.680;8.890;2023-04-30T06:16:16;8.13;;;6.28;;
26303;SDS011;57113;48.680;8.890;2023-04-30T06:18:41;8.18;;;6.28;;
26303;SDS011;57113;48.680;8.890;2023-04-30T06:21:07;7.88;;;5.75;;
26303;SDS011;57113;48.680;8.890;2023-04-30T06:23:32;6.90;;;6.18;;
26303;SDS011;57113;48.680;8.890;2023-04-30T06:25:58;7.72;;;6.03;;
26303;SDS011;57113;48.680;8.890;2023-04-30T06:28:24;7.93;;;6.30;;
26303;SDS011;57113;48.680;8.890;2023-04-30T06:30:50;7.10;;;5.75;;
26303;SDS011;57113;48.680;8.890;2023-04-30T06:33:16;6.45;;;5.60;;
26303;SDS011;57113;48.680;8.890;2023-04-30T06:35:41;6.55;;;5.88;;
26303;SDS011;57113;48.680;8.890;2023-04-30T06:38:07;8.52;;;6.10;;
26303;SDS011;57113;48.680;8.890;2023-04-30T06:40:33;7.05;;;5.65;;
26303;SDS011;57113;48.680;8.890;2023-04-30T06:42:59;10.00;;;5.82;;
26303;SDS011;57113;48.680;8.890;2023-04-30T06:45:24;7.43;;;5.75;;
26303;SDS011;57113;48.680;8.890;2023-04-30T06:47:50;7.15;;;5.70;;
26303;SDS011;57113;48.680;8.890;2023-04-30T06:50:17;6.78;;;5.78;;
26303;SDS011;57113;48.680;8.890;2023-04-30T06:52:43;7.35;;;5.72;;
26303;SDS011;57113;48.680;8.890;2023-04-30T06:55:09;6.00;;;5.40;;
26303;SDS011;57113;48.680;8.890;2023-04-30T06:57:35;9.02;;;6.10;;
26303;SDS011;57113;48.680;8.890;2023-04-30T07:00:02;8.25;;;5.97;;
26303;SDS011;57113;48.680;8.890;2023-04-30T07:02:31;6.85;;;5.60;;
26303;SDS011;57113;48.680;8.890;2023-04-30T07:04:57;6.97;;;5.30;;
26303;SDS011;57113;48.680;8.890;2023-04-30T07:07:22;7.25;;;5.68;;
26303;SDS011;57113;48.680;8.890;2023-04-30T07:09:48;6.00;;;4.43;;
26303;SDS011;57113;48.680;8.890;2023-04-30T07:12:14;6.82;;;5.28;;
26303;SDS011;57113;48.680;8.890;2023-04-30T07:14:40;7.05;;;5.57;;
26303;SDS011;57113;48.680;8.890;2023-04-30T07:17:06;7.28;;;5.43;;
26303;SDS011;57113;48.680;8.890;2023-04-30T07:19:32;6.90;;;5.30;;
26303;SDS011;57113;48.680;8.890;2023-04-30T07:21:57;7.68;;;5.78;;
26303;SDS011;57113;48.680;8.890;2023-04-30T07:24:23;6.28;;;5.10;;
26303;SDS011;57113;48.680;8.890;2023-04-30T07:26:49;7.55;;;5.22;;
26303;SDS011;57113;48.680;8.890;2023-04-30T07:29:14;6.88;;;5.45;;
26303;SDS011;57113;48.680;8.890;2023-04-30T07:31:40;6.28;;;4.85;;
26303;SDS011;57113;48.680;8.890;2023-04-30T07:34:06;6.10;;;5.05;;
26303;SDS011;57113;48.680;8.890;2023-04-30T07:36:32;7.22;;;4.78;;
26303;SDS011;57113;48.680;8.890;2023-04-30T07:38:58;6.88;;;4.90;;
26303;SDS011;57113;48.680;8.890;2023-04-30T07:41:24;5.95;;;4.88;;
26303;SDS011;57113;48.680;8.890;2023-04-30T07:43:50;6.22;;;4.90;;
26303;SDS011;57113;48.680;8.890;2023-04-30T07:46:15;6.72;;;4.75;;
26303;SDS011;57113;48.680;8.890;2023-04-30T07:48:41;5.80;;;4.40;;
26303;SDS011;57113;48.680;8.890;2023-04-30T07:51:07;5.85;;;4.60;;
26303;SDS011;57113;48.680;8.890;2023-04-30T07:53:32;5.57;;;4.68;;
26303;SDS011;57113;48.680;8.890;2023-04-30T07:55:58;6.25;;;4.80;;
26303;SDS011;57113;48.680;8.890;2023-04-30T07:58:23;7.38;;;4.28;;
26303;SDS011;57113;48.680;8.890;2023-04-30T08:00:49;5.53;;;4.40;;
26303;SDS011;57113;48.680;8.890;2023-04-30T08:03:15;5.80;;;4.15;;
26303;SDS011;57113;48.680;8.890;2023-04-30T08:05:40;5.45;;;4.45;;
26303;SDS011;57113;48.680;8.890;2023-04-30T08:08:06;5.82;;;4.25;;
26303;SDS011;57113;48.680;8.890;2023-04-30T08:10:32;6.15;;;4.20;;
26303;SDS011;57113;48.680;8.890;2023-04-30T08:12:58;5.00;;;3.85;;
26303;SDS011;57113;48.680;8.890;2023-04-30T08:15:23;4.85;;;4.13;;
26303;SDS011;57113;48.680;8.890;2023-04-30T08:17:49;5.57;;;3.92;;
26303;SDS011;57113;48.680;8.890;2023-04-30T08:20:16;4.65;;;4.05;;
26303;SDS011;57113;48.680;8.890;2023-04-30T08:22:42;4.85;;;3.83;;
26303;SDS011;57113;48.680;8.890;2023-04-30T08:25:11;5.03;;;3.88;;
26303;SDS011;57113;48.680;8.890;2023-04-30T08:27:37;5.95;;;3.85;;
26303;SDS011;57113;48.680;8.890;2023-04-30T08:30:03;4.60;;;3.92;;
26303;SDS011;57113;48.680;8.890;2023-04-30T08:32:33;4.80;;;4.07;;
26303;SDS011;57113;48.680;8.890;2023-04-30T08:35:05;4.28;;;3.78;;
26303;SDS011;57113;48.680;8.890;2023-04-30T08:37:31;5.80;;;4.45;;
26303;SDS011;57113;48.680;8.890;2023-04-30T08:39:57;4.45;;;3.70;;
26303;SDS011;57113;48.680;8.890;2023-04-30T08:42:33;4.50;;;3.97;;
26303;SDS011;57113;48.680;8.890;2023-04-30T08:45:01;4.63;;;3.60;;
26303;SDS011;57113;48.680;8.890;2023-04-30T08:47:28;5.53;;;3.83;;
26303;SDS011;57113;48.680;8.890;2023-04-30T08:49:55;5.30;;;3.75;;
26303;SDS011;57113;48.680;8.890;2023-04-30T08:52:20;4.18;;;3.78;;
26303;SDS011;57113;48.680;8.890;2023-04-30T08:54:46;4.30;;;3.70;;
26303;SDS011;57113;48.680;8.890;2023-04-30T08:57:12;4.57;;;3.42;;
26303;SDS011;57113;48.680;8.890;2023-04-30T08:59:38;3.97;;;3.35;;
26303;SDS011;57113;48.680;8.890;2023-04-30T09:02:04;4.60;;;3.70;;
26303;SDS011;57113;48.680;8.890;2023-04-30T09:04:30;4.03;;;3.20;;
26303;SDS011;57113;48.680;8.890;2023-04-30T09:06:56;4.35;;;3.70;;
26303;SDS011;57113;48.680;8.890;2023-04-30T09:09:28;3.92;;;3.20;;
26303;SDS011;57113;48.680;8.890;2023-04-30T09:12:13;4.00;;;3.28;;
26303;SDS011;57113;48.680;8.890;2023-04-30T09:14:51;6.60;;;3.38;;
26303;SDS011;57113;48.680;8.890;2023-04-30T09:17:26;3.55;;;3.10;;
26303;SDS011;57113;48.680;8.890;2023-04-30T09:19:51;4.45;;;3.33;;
26303;SDS011;57113;48.680;8.890;2023-04-30T09:22:18;4.78;;;3.47;;
26303;SDS011;57113;48.680;8.890;2023-04-30T09:24:46;3.90;;;3.20;;
26303;SDS011;57113;48.680;8.890;2023-04-30T09:29:46;5.30;;;2.92;;
26303;SDS011;57113;48.680;8.890;2023-04-30T09:32:12;3.97;;;2.90;;
26303;SDS011;57113;48.680;8.890;2023-04-30T09:34:38;4.38;;;3.15;;
26303;SDS011;57113;48.680;8.890;2023-04-30T09:37:04;4.50;;;3.33;;
26303;SDS011;57113;48.680;8.890;2023-04-30T09:39:31;5.30;;;3.15;;
26303;SDS011;57113;48.680;8.890;2023-04-30T09:42:07;3.25;;;2.88;;
26303;SDS011;57113;48.680;8.890;2023-04-30T09:44:37;4.55;;;3.10;;
26303;SDS011;57113;48.680;8.890;2023-04-30T09:47:09;3.58;;;2.83;;
26303;SDS011;57113;48.680;8.890;2023-04-30T09:49:47;4.00;;;3.03;;
26303;SDS011;57113;48.680;8.890;2023-04-30T09:52:16;3.72;;;3.08;;
26303;SDS011;57113;48.680;8.890;2023-04-30T09:54:43;3.80;;;3.05;;
26303;SDS011;57113;48.680;8.890;2023-04-30T09:57:10;4.55;;;3.42;;
26303;SDS011;57113;48.680;8.890;2023-04-30T09:59:37;3.28;;;2.97;;
26303;SDS011;57113;48.680;8.890;2023-04-30T10:02:12;3.78;;;3.08;;
26303;SDS011;57113;48.680;8.890;2023-04-30T10:04:41;5.07;;;3.25;;
26303;SDS011;57113;48.680;8.890;2023-04-30T10:07:08;5.45;;;3.53;;
26303;SDS011;57113;48.680;8.890;2023-04-30T10:09:46;6.40;;;3.85;;
26303;SDS011;57113;48.680;8.890;2023-04-30T10:15:05;6.13;;;3.58;;
26303;SDS011;57113;48.680;8.890;2023-04-30T10:17:36;7.70;;;4.05;;
26303;SDS011;57113;48.680;8.890;2023-04-30T10:20:08;5.53;;;3.80;;
26303;SDS011;57113;48.680;8.890;2023-04-30T10:22:35;3.67;;;3.30;;
26303;SDS011;57113;48.680;8.890;2023-04-30T10:25:01;4.63;;;3.25;;
26303;SDS011;57113;48.680;8.890;2023-04-30T10:27:28;4.57;;;3.25;;
26303;SDS011;57113;48.680;8.890;2023-04-30T10:29:54;4.72;;;3.10;;
26303;SDS011;57113;48.680;8.890;2023-04-30T10:32:20;5.28;;;3.60;;
26303;SDS011;57113;48.680;8.890;2023-04-30T10:34:53;4.20;;;3.40;;
26303;SDS011;57113;48.680;8.890;2023-04-30T10:37:35;5.07;;;3.20;;
26303;SDS011;57113;48.680;8.890;2023-04-30T10:40:27;3.28;;;2.97;;
26303;SDS011;57113;48.680;8.890;2023-04-30T10:42:52;4.57;;;3.05;;
26303;SDS011;57113;48.680;8.890;2023-04-30T10:45:22;4.75;;;3.60;;
26303;SDS011;57113;48.680;8.890;2023-04-30T10:48:02;3.47;;;2.95;;
26303;SDS011;57113;48.680;8.890;2023-04-30T10:50:29;5.47;;;3.00;;
26303;SDS011;57113;48.680;8.890;2023-04-30T10:53:01;4.82;;;2.83;;
26303;SDS011;57113;48.680;8.890;2023-04-30T10:55:28;5.03;;;3.20;;
26303;SDS011;57113;48.680;8.890;2023-04-30T10:57:54;3.47;;;2.80;;
26303;SDS011;57113;48.680;8.890;2023-04-30T11:00:28;5.75;;;2.97;;
26303;SDS011;57113;48.680;8.890;2023-04-30T11:02:55;3.30;;;3.00;;
26303;SDS011;57113;48.680;8.890;2023-04-30T11:05:34;3.17;;;2.88;;
26303;SDS011;57113;48.680;8.890;2023-04-30T11:08:02;3.03;;;2.63;;
26303;SDS011;57113;48.680;8.890;2023-04-30T11:10:33;3.03;;;2.72;;
26303;SDS011;57113;48.680;8.890;2023-04-30T11:13:02;3.28;;;2.97;;
26303;SDS011;57113;48.680;8.890;2023-04-30T11:15:38;3.42;;;2.88;;
26303;SDS011;57113;48.680;8.890;2023-04-30T11:18:08;4.35;;;3.00;;
26303;SDS011;57113;48.680;8.890;2023-04-30T11:20:36;3.30;;;2.83;;
26303;SDS011;57113;48.680;8.890;2023-04-30T11:23:13;3.72;;;2.58;;
26303;SDS011;57113;48.680;8.890;2023-04-30T11:25:44;3.35;;;2.78;;
26303;SDS011;57113;48.680;8.890;2023-04-30T11:30:41;3.15;;;2.70;;
26303;SDS011;57113;48.680;8.890;2023-04-30T11:33:22;3.22;;;2.90;;
26303;SDS011;57113;48.680;8.890;2023-04-30T11:35:54;3.58;;;2.70;;
26303;SDS011;57113;48.680;8.890;2023-04-30T11:40:53;3.85;;;2.83;;
26303;SDS011;57113;48.680;8.890;2023-04-30T11:43:24;3.95;;;2.78;;
26303;SDS011;57113;48.680;8.890;2023-04-30T11:46:07;3.83;;;2.75;;
26303;SDS011;57113;48.680;8.890;2023-04-30T11:48:38;4.60;;;2.63;;
26303;SDS011;57113;48.680;8.890;2023-04-30T11:53:48;2.92;;;2.55;;
26303;SDS011;57113;48.680;8.890;2023-04-30T11:56:21;3.20;;;2.53;;
26303;SDS011;57113;48.680;8.890;2023-04-30T11:58:48;4.32;;;2.78;;
26303;SDS011;57113;48.680;8.890;2023-04-30T12:01:15;3.40;;;2.50;;
26303;SDS011;57113;48.680;8.890;2023-04-30T12:03:45;3.20;;;2.45;;
26303;SDS011;57113;48.680;8.890;2023-04-30T12:06:23;3.28;;;2.33;;
26303;SDS011;57113;48.680;8.890;2023-04-30T12:08:53;3.22;;;2.58;;
26303;SDS011;57113;48.680;8.890;2023-04-30T12:11:24;2.72;;;2.53;;
26303;SDS011;57113;48.680;8.890;2023-04-30T12:14:02;3.20;;;2.60;;
26303;SDS011;57113;48.680;8.890;2023-04-30T12:19:13;3.78;;;2.72;;
26303;SDS011;57113;48.680;8.890;2023-04-30T12:21:40;3.42;;;2.60;;
26303;SDS011;57113;48.680;8.890;2023-04-30T12:24:11;3.03;;;2.65;;
26303;SDS011;57113;48.680;8.890;2023-04-30T12:26:38;3.33;;;2.67;;
26303;SDS011;57113;48.680;8.890;2023-04-30T12:29:08;3.42;;;2.90;;
26303;SDS011;57113;48.680;8.890;2023-04-30T12:31:35;3.15;;;2.80;;
26303;SDS011;57113;48.680;8.890;2023-04-30T12:34:05;2.92;;;2.47;;
26303;SDS011;57113;48.680;8.890;2023-04-30T12:36:32;3.15;;;2.67;;
26303;SDS011;57113;48.680;8.890;2023-04-30T12:39:13;4.03;;;2.92;;
26303;SDS011;57113;48.680;8.890;2023-04-30T12:42:18;6.20;;;2.72;;
26303;SDS011;57113;48.680;8.890;2023-04-30T12:44:44;3.75;;;2.58;;
26303;SDS011;57113;48.680;8.890;2023-04-30T12:47:09;3.20;;;2.90;;
26303;SDS011;57113;48.680;8.890;2023-04-30T12:49:35;5.75;;;2.50;;
26303;SDS011;57113;48.680;8.890;2023-04-30T12:52:05;4.50;;;2.67;;
26303;SDS011;57113;48.680;8.890;2023-04-30T12:54:34;4.18;;;2.45;;
26303;SDS011;57113;48.680;8.890;2023-04-30T12:57:04;5.75;;;2.70;;
26303;SDS011;57113;48.680;8.890;2023-04-30T12:59:36;3.72;;;2.42;;
26303;SDS011;57113;48.680;8.890;2023-04-30T13:02:06;3.55;;;2.55;;
26303;SDS011;57113;48.680;8.890;2023-04-30T13:04:36;4.07;;;2.22;;
26303;SDS011;57113;48.680;8.890;2023-04-30T13:07:03;3.30;;;2.50;;
26303;SDS011;57113;48.680;8.890;2023-04-30T13:09:29;4.95;;;2.28;;
26303;SDS011;57113;48.680;8.890;2023-04-30T13:11:58;3.60;;;2.42;;
26303;SDS011;57113;48.680;8.890;2023-04-30T13:14:24;2.75;;;2.20;;
26303;SDS011;57113;48.680;8.890;2023-04-30T13:16:50;5.07;;;2.28;;
26303;SDS011;57113;48.680;8.890;2023-04-30T13:19:15;2.95;;;2.38;;
26303;SDS011;57113;48.680;8.890;2023-04-30T13:21:41;3.22;;;2.47;;
26303;SDS011;57113;48.680;8.890;2023-04-30T13:24:06;2.50;;;2.10;;
26303;SDS011;57113;48.680;8.890;2023-04-30T13:26:32;2.10;;;1.90;;
26303;SDS011;57113;48.680;8.890;2023-04-30T13:28:58;3.08;;;1.80;;
26303;SDS011;57113;48.680;8.890;2023-04-30T13:31:23;2.50;;;2.30;;
26303;SDS011;57113;48.680;8.890;2023-04-30T13:33:49;4.57;;;2.22;;
26303;SDS011;57113;48.680;8.890;2023-04-30T13:36:15;5.10;;;2.47;;
26303;SDS011;57113;48.680;8.890;2023-04-30T13:38:41;2.58;;;2.10;;
26303;SDS011;57113;48.680;8.890;2023-04-30T13:41:07;2.88;;;2.00;;
26303;SDS011;57113;48.680;8.890;2023-04-30T13:43:33;2.50;;;2.13;;
26303;SDS011;57113;48.680;8.890;2023-04-30T13:45:58;2.97;;;2.10;;
26303;SDS011;57113;48.680;8.890;2023-04-30T13:48:24;2.58;;;1.90;;
26303;SDS011;57113;48.680;8.890;2023-04-30T13:50:50;3.28;;;1.90;;
26303;SDS011;57113;48.680;8.890;2023-04-30T13:53:16;2.20;;;1.90;;
26303;SDS011;57113;48.680;8.890;2023-04-30T13:55:42;3.30;;;2.10;;
26303;SDS011;57113;48.680;8.890;2023-04-30T13:58:08;2.20;;;2.00;;
26303;SDS011;57113;48.680;8.890;2023-04-30T14:00:33;2.65;;;2.28;;
26303;SDS011;57113;48.680;8.890;2023-04-30T14:02:59;2.70;;;1.98;;
26303;SDS011;57113;48.680;8.890;2023-04-30T14:05:25;2.83;;;2.00;;
26303;SDS011;57113;48.680;8.890;2023-04-30T14:07:51;2.70;;;2.17;;
26303;SDS011;57113;48.680;8.890;2023-04-30T14:10:17;2.92;;;2.42;;
26303;SDS011;57113;48.680;8.890;2023-04-30T14:12:42;2.63;;;2.13;;
26303;SDS011;57113;48.680;8.890;2023-04-30T14:15:08;2.97;;;2.20;;
26303;SDS011;57113;48.680;8.890;2023-04-30T14:17:34;3.28;;;2.13;;
26303;SDS011;57113;48.680;8.890;2023-04-30T14:19:59;4.80;;;2.10;;
26303;SDS011;57113;48.680;8.890;2023-04-30T14:22:25;2.72;;;2.05;;
26303;SDS011;57113;48.680;8.890;2023-04-30T14:24:51;3.60;;;2.10;;
26303;SDS011;57113;48.680;8.890;2023-04-30T14:27:17;5.55;;;2.20;;
26303;SDS011;57113;48.680;8.890;2023-04-30T14:29:42;2.28;;;2.00;;
26303;SDS011;57113;48.680;8.890;2023-04-30T14:32:08;2.50;;;2.30;;
26303;SDS011;57113;48.680;8.890;2023-04-30T14:34:33;2.42;;;1.90;;
26303;SDS011;57113;48.680;8.890;2023-04-30T14:37:00;3.75;;;2.00;;
26303;SDS011;57113;48.680;8.890;2023-04-30T14:39:27;3.50;;;2.10;;
26303;SDS011;57113;48.680;8.890;2023-04-30T14:41:53;5.10;;;2.22;;
26303;SDS011;57113;48.680;8.890;2023-04-30T14:44:18;2.72;;;2.20;;
26303;SDS011;57113;48.680;8.890;2023-04-30T14:46:47;2.47;;;1.98;;
26303;SDS011;57113;48.680;8.890;2023-04-30T14:49:13;3.78;;;2.13;;
26303;SDS011;57113;48.680;8.890;2023-04-30T14:51:39;3.25;;;2.20;;
26303;SDS011;57113;48.680;8.890;2023-04-30T14:54:04;2.40;;;1.90;;
26303;SDS011;57113;48.680;8.890;2023-04-30T14:56:30;3.25;;;2.15;;
26303;SDS011;57113;48.680;8.890;2023-04-30T14:58:56;3.58;;;2.60;;
26303;SDS011;57113;48.680;8.890;2023-04-30T15:01:21;4.10;;;1.90;;
26303;SDS011;57113;48.680;8.890;2023-04-30T15:03:47;2.58;;;1.90;;
26303;SDS011;57113;48.680;8.890;2023-04-30T15:06:12;3.67;;;1.85;;
26303;SDS011;57113;48.680;8.890;2023-04-30T15:08:39;2.38;;;1.80;;
26303;SDS011;57113;48.680;8.890;2023-04-30T15:11:04;4.45;;;2.47;;
26303;SDS011;57113;48.680;8.890;2023-04-30T15:13:33;2.42;;;2.15;;
26303;SDS011;57113;48.680;8.890;2023-04-30T15:15:59;3.13;;;2.17;;
26303;SDS011;57113;48.680;8.890;2023-04-30T15:18:25;2.50;;;1.90;;
26303;SDS011;57113;48.680;8.890;2023-04-30T15:20:51;2.50;;;2.17;;